Time;durP1;ratioP1;P1;durP2;ratioP2;P2;SDS_P1;SDS_P2;PMS_P1;PMS_P2;Temp;Humidity;BMP_temperature;BMP_pressure;BME280_temperature;BME280_humidity;BME280_pressure;Samples;Min_cycle;Max_cycle;Signal;HPM_P1;HPM_P2
2022/10/03 00:00:15;;;;;;;2.33;1.25;;;;;;;22.69;46.99;101314.59;5014438;28;20026;-47
2022/10/03 00:02:51;;;;;;;5.05;1.30;;;;;;;22.48;47.42;101316.53;5014309;28;20033;-45
2022/10/03 00:05:38;;;;;;;4.90;1.40;;;;;;;22.22;47.31;101318.47;5025533;28;20065;-46
2022/10/03 00:08:17;;;;;;;4.85;1.75;;;;;;;22.14;48.20;101314.34;5034429;28;20026;-46
2022/10/03 00:11:16;;;;;;;3.92;1.48;;;;;;;22.24;48.19;101310.81;5013905;28;20037;-45
2022/10/03 00:14:09;;;;;;;3.58;1.55;;;;;;;22.29;47.87;101313.53;5000080;28;20387;-45
2022/10/03 00:16:56;;;;;;;5.18;1.58;;;;;;;22.30;47.80;101315.16;5003753;28;20034;-45
2022/10/03 00:19:44;;;;;;;3.95;1.35;;;;;;;22.19;47.64;101306.16;5007951;28;20139;-45
2022/10/03 00:22:20;;;;;;;2.28;1.27;;;;;;;22.24;47.85;101311.63;4999215;28;20037;-45
2022/10/03 00:25:12;;;;;;;38.15;3.78;;;;;;;22.21;47.83;101304.00;5020570;28;20029;-43
2022/10/03 00:28:15;;;;;;;2.85;1.48;;;;;;;22.11;47.60;101312.19;4994524;28;20488;-46
2022/10/03 00:31:08;;;;;;;3.13;1.33;;;;;;;22.06;47.78;101310.22;4994467;28;20030;-44
2022/10/03 00:33:54;;;;;;;5.40;1.40;;;;;;;21.90;48.12;101310.47;4994166;28;20399;-45
2022/10/03 00:36:30;;;;;;;3.50;1.30;;;;;;;21.84;48.51;101307.75;4993987;28;20491;-46
2022/10/03 00:39:18;;;;;;;6.07;2.25;;;;;;;21.58;49.73;101315.03;5019311;28;20036;-46
2022/10/03 00:42:00;;;;;;;6.55;1.70;;;;;;;21.65;49.84;101322.94;5033809;28;20140;-48
2022/10/03 00:45:10;;;;;;;5.35;1.73;;;;;;;21.20;50.37;101320.84;5013899;28;20022;-44
2022/10/03 00:47:47;;;;;;;1.73;1.27;;;;;;;20.98;51.55;101315.56;4994225;28;20026;-47
2022/10/03 00:50:23;;;;;;;4.63;1.75;;;;;;;21.07;51.34;101313.97;4994162;28;20042;-45
2022/10/03 00:53:10;;;;;;;3.85;1.55;;;;;;;21.23;51.21;101312.97;5009425;28;20434;-47
2022/10/03 00:56:00;;;;;;;4.53;1.90;;;;;;;21.15;51.79;101310.75;4993576;28;20502;-45
2022/10/03 00:58:26;;;;;;;5.70;2.03;;;;;;;21.13;51.45;101317.53;5006908;28;20363;-45
2022/10/03 01:01:03;;;;;;;5.05;1.92;;;;;;;21.02;52.04;101313.94;5013241;28;20037;-48
2022/10/03 01:03:45;;;;;;;5.35;2.08;;;;;;;21.03;51.68;101315.59;5013483;28;20030;-48
2022/10/03 01:06:42;;;;;;;5.82;2.05;;;;;;;20.79;52.09;101317.91;5013069;28;20045;-48
2022/10/03 01:09:30;;;;;;;3.70;1.63;;;;;;;20.88;52.00;101315.53;5013376;28;20022;-44
2022/10/03 01:12:12;;;;;;;3.08;1.77;;;;;;;20.38;53.32;101312.16;5013166;28;20033;-44
2022/10/03 01:14:51;;;;;;;4.80;1.63;;;;;;;20.54;52.53;101318.53;5013642;28;20091;-44
2022/10/03 01:17:42;;;;;;;5.20;1.52;;;;;;;20.06;53.53;101320.28;5012780;28;20034;-44
2022/10/03 01:20:29;;;;;;;4.38;1.65;;;;;;;20.06;53.86;101323.00;5009988;28;20430;-45
2022/10/03 01:23:26;;;;;;;3.80;1.58;;;;;;;20.25;53.18;101326.16;4993377;28;20034;-47
2022/10/03 01:26:11;;;;;;;5.28;1.70;;;;;;;20.37;53.29;101326.81;4993108;28;20153;-44
2022/10/03 01:31:44;;;;;;;5.97;2.28;;;;;;;20.33;53.55;101335.75;5010938;28;20525;-44
2022/10/03 01:34:23;;;;;;;5.05;1.63;;;;;;;20.24;54.23;101341.66;5022784;28;20367;-42
2022/10/03 01:37:01;;;;;;;4.05;2.00;;;;;;;20.13;55.13;101333.66;5006937;28;20041;-42
2022/10/03 01:39:47;;;;;;;3.22;1.90;;;;;;;20.10;55.33;101339.59;5004049;28;20053;-44
2022/10/03 01:42:59;;;;;;;3.05;1.77;;;;;;;19.90;56.91;101340.25;4994876;28;20030;-46
2022/10/03 01:45:36;;;;;;;6.55;1.70;;;;;;;19.91;56.79;101339.97;4985222;28;20036;-46
2022/10/03 01:48:12;;;;;;;6.10;1.80;;;;;;;19.85;56.67;101337.47;4993011;28;20026;-48
2022/10/03 01:50:50;;;;;;;4.82;1.98;;;;;;;19.57;57.77;101344.72;5000622;28;20030;-46
2022/10/03 01:53:26;;;;;;;5.43;1.88;;;;;;;19.44;58.23;101339.69;5010015;28;20022;-46
2022/10/03 01:56:07;;;;;;;5.80;2.28;;;;;;;19.14;60.48;101340.91;5004449;28;20045;-45
2022/10/03 01:58:48;;;;;;;3.60;2.22;;;;;;;19.23;60.22;101347.56;5006421;28;20105;-45
2022/10/03 02:01:25;;;;;;;6.55;2.13;;;;;;;19.32;60.20;101344.41;5011875;28;20037;-44
2022/10/03 02:04:05;;;;;;;4.97;2.10;;;;;;;19.36;60.71;101348.25;5013539;28;20042;-44
2022/10/03 02:07:03;;;;;;;7.65;2.08;;;;;;;19.16;61.94;101348.84;5008585;28;20501;-45
2022/10/03 02:10:08;;;;;;;5.20;2.15;;;;;;;19.12;62.97;101350.41;5031852;28;20049;-48
2022/10/03 02:12:47;;;;;;;8.52;2.67;;;;;;;19.11;63.32;101349.56;5016369;28;20486;-46
2022/10/03 02:15:19;;;;;;;5.28;2.45;;;;;;;18.91;63.60;101355.53;5019352;28;20087;-45
2022/10/03 02:18:11;;;;;;;23.40;2.35;;;;;;;18.89;63.30;101359.56;5002460;28;20500;-45
2022/10/03 02:20:45;;;;;;;6.68;2.15;;;;;;;18.61;64.23;101364.00;5012228;28;20037;-42
2022/10/03 02:23:40;;;;;;;4.78;2.30;;;;;;;18.59;64.18;101371.53;5012028;28;20305;-43
2022/10/03 02:26:35;;;;;;;5.13;2.13;;;;;;;18.67;63.41;101376.59;5011725;28;20030;-43
2022/10/03 02:29:45;;;;;;;4.85;2.00;;;;;;;18.64;63.99;101371.63;5011760;28;20021;-45
2022/10/03 02:32:49;;;;;;;4.88;1.95;;;;;;;18.70;63.97;101370.66;4973644;28;20093;-44
2022/10/03 02:35:44;;;;;;;5.50;2.35;;;;;;;18.92;63.11;101368.00;5010177;28;20129;-43
2022/10/03 02:38:47;;;;;;;4.93;2.30;;;;;;;18.71;63.69;101371.47;5001523;28;20437;-48
2022/10/03 02:41:14;;;;;;;5.25;2.53;;;;;;;18.70;63.17;101365.22;5011694;28;20609;-44
2022/10/03 02:43:58;;;;;;;5.07;2.08;;;;;;;18.62;63.05;101364.81;5011668;28;20038;-45
2022/10/03 02:46:42;;;;;;;6.72;2.55;;;;;;;18.39;63.71;101373.91;5010626;28;20191;-44
2022/10/03 02:49:30;;;;;;;6.22;2.50;;;;;;;18.55;63.08;101375.81;5011720;28;20030;-45
2022/10/03 02:52:27;;;;;;;3.78;1.85;;;;;;;18.59;63.06;101376.13;5020917;28;20068;-47
2022/10/03 02:55:13;;;;;;;5.05;2.78;;;;;;;18.66;62.36;101380.34;4994928;28;20029;-44
2022/10/03 02:58:01;;;;;;;5.20;2.17;;;;;;;18.73;61.75;101385.63;5011454;28;20467;-48
2022/10/03 03:00:54;;;;;;;4.38;2.17;;;;;;;18.55;61.72;101383.97;5010741;28;20116;-43
2022/10/03 03:03:55;;;;;;;4.28;2.45;;;;;;;18.38;62.43;101383.94;5005105;28;20038;-44
2022/10/03 03:06:35;;;;;;;7.45;2.17;;;;;;;18.40;62.03;101384.50;4992115;28;20037;-44
2022/10/03 03:09:36;;;;;;;5.32;2.03;;;;;;;18.41;62.12;101393.47;5007609;28;20383;-44
2022/10/03 03:12:03;;;;;;;4.65;2.13;;;;;;;18.53;61.54;101388.78;4992488;28;20042;-45
2022/10/03 03:14:29;;;;;;;4.88;2.47;;;;;;;18.45;61.62;101392.72;5013481;28;20117;-49
2022/10/03 03:16:58;;;;;;;5.07;2.20;;;;;;;18.44;62.07;101390.28;5012943;28;20455;-47
2022/10/03 03:19:27;;;;;;;4.00;2.22;;;;;;;18.51;61.43;101385.50;5012828;28;20486;-46
2022/10/03 03:22:31;;;;;;;3.63;2.10;;;;;;;18.51;61.59;101388.22;5012736;28;20494;-45
2022/10/03 03:25:34;;;;;;;4.43;1.80;;;;;;;18.49;61.23;101387.66;5012446;28;20038;-45
2022/10/03 03:28:01;;;;;;;8.70;2.85;;;;;;;18.45;60.96;101389.19;5012787;28;20022;-44
2022/10/03 03:30:42;;;;;;;5.72;2.20;;;;;;;18.40;61.01;101397.25;5014501;28;20036;-45
2022/10/03 03:33:11;;;;;;;5.25;2.50;;;;;;;18.38;61.00;101388.53;5012536;28;20065;-49
2022/10/03 03:35:45;;;;;;;10.80;2.70;;;;;;;18.36;60.99;101388.75;5013502;28;20057;-48
2022/10/03 03:38:42;;;;;;;5.97;2.47;;;;;;;18.32;61.06;101394.91;5023410;28;20033;-45
2022/10/03 03:41:55;;;;;;;4.45;2.25;;;;;;;18.25;60.99;101397.78;5010564;28;20030;-46
2022/10/03 03:44:46;;;;;;;5.80;3.33;;;;;;;18.18;60.94;101394.41;5014184;28;20061;-46
2022/10/03 03:47:49;;;;;;;5.60;2.67;;;;;;;18.18;60.48;101400.66;4997437;28;20034;-47
2022/10/03 03:50:31;;;;;;;7.50;3.05;;;;;;;18.16;60.74;101399.25;5006307;28;20421;-46
2022/10/03 03:53:30;;;;;;;4.53;2.70;;;;;;;18.12;60.51;101408.94;5013180;28;20026;-45
2022/10/03 03:56:16;;;;;;;7.00;2.40;;;;;;;18.06;60.97;101418.03;5014499;28;20057;-45
2022/10/03 03:58:50;;;;;;;;;;;;;;;18.08;60.49;101405.03;5013259;28;20038;-44
2022/10/03 04:01:28;;;;;;;4.53;2.70;;;;;;;17.99;61.01;101415.47;5013709;28;19917;-44
2022/10/03 04:04:30;;;;;;;4.25;2.55;;;;;;;17.93;61.01;101406.41;5014805;28;20037;-45
2022/10/03 04:07:03;;;;;;;8.02;6.93;;;;;;;17.88;61.33;101408.19;5014505;28;20137;-49
2022/10/03 04:09:57;;;;;;;6.63;4.90;;;;;;;17.87;61.40;101411.94;5013498;28;20026;-49
2022/10/03 04:12:37;;;;;;;8.48;5.25;;;;;;;17.87;61.37;101412.78;4995910;28;20073;-46
2022/10/03 04:15:32;;;;;;;5.93;4.28;;;;;;;17.81;61.22;101410.19;5014211;28;20517;-47
2022/10/03 04:21:44;;;;;;;9.73;3.33;;;;;;;17.65;61.88;101415.28;5014791;28;20119;-45
2022/10/03 04:24:43;;;;;;;5.40;3.03;;;;;;;17.61;62.30;101418.72;5003659;28;20276;-45
2022/10/03 04:27:27;;;;;;;6.30;3.30;;;;;;;17.57;62.24;101418.34;4995467;28;20041;-45
2022/10/03 04:30:08;;;;;;;6.07;3.00;;;;;;;17.53;62.60;101422.59;4994187;28;20109;-48
2022/10/03 04:33:10;;;;;;;5.38;2.35;;;;;;;17.51;62.78;101419.31;4994487;28;20047;-45
2022/10/03 04:35:55;;;;;;;5.60;2.70;;;;;;;17.51;62.58;101418.50;5013534;28;20072;-47
2022/10/03 04:38:45;;;;;;;6.77;3.00;;;;;;;17.45;62.72;101424.84;5012619;28;20498;-46
2022/10/03 04:41:39;;;;;;;5.90;2.55;;;;;;;17.35;63.12;101428.97;5013173;28;20605;-46
2022/10/03 04:44:27;;;;;;;6.50;3.45;;;;;;;16.68;66.28;101420.31;5005132;28;20125;-48
2022/10/03 04:47:08;;;;;;;6.30;2.83;;;;;;;16.61;66.09;101427.72;5012877;28;20382;-45
2022/10/03 04:49:48;;;;;;;6.43;2.70;;;;;;;16.52;66.86;101432.63;5013631;28;20076;-44
2022/10/03 04:52:21;;;;;;;4.15;2.53;;;;;;;16.41;67.21;101429.91;5012289;28;20422;-45
2022/10/03 04:54:56;;;;;;;5.80;2.85;;;;;;;16.61;66.07;101430.44;5013086;28;20570;-46
2022/10/03 04:57:46;;;;;;;5.47;2.75;;;;;;;16.07;68.52;101430.34;5012459;28;20438;-45
2022/10/03 05:00:22;;;;;;;5.38;2.75;;;;;;;16.39;66.93;101435.53;5012411;28;20029;-45
2022/10/03 05:03:13;;;;;;;6.88;3.03;;;;;;;16.49;66.43;101430.41;5012282;28;20030;-47
2022/10/03 05:05:53;;;;;;;8.10;3.22;;;;;;;16.59;65.62;101438.75;5011750;28;20662;-43
2022/10/03 05:08:41;;;;;;;8.05;3.80;;;;;;;16.45;66.42;101428.38;5012906;28;20032;-45
2022/10/03 05:12:05;;;;;;;5.68;3.17;;;;;;;16.44;66.39;101438.38;5012511;28;20038;-44
2022/10/03 05:14:43;;;;;;;5.55;2.92;;;;;;;16.46;66.30;101433.56;5009281;28;20061;-43
2022/10/03 05:17:19;;;;;;;5.70;3.00;;;;;;;16.47;66.23;101429.78;5010825;28;20036;-46
2022/10/03 05:20:04;;;;;;;7.15;2.75;;;;;;;16.05;67.98;101440.56;4998646;28;20061;-43
2022/10/03 05:22:51;;;;;;;10.57;4.47;;;;;;;16.23;67.18;101437.00;4993320;28;20105;-45
2022/10/03 05:25:44;;;;;;;7.63;3.35;;;;;;;16.21;67.08;101436.41;5010949;28;20041;-46
2022/10/03 05:28:42;;;;;;;14.15;7.38;;;;;;;15.46;70.53;101433.94;5011980;28;20099;-46
2022/10/03 05:31:53;;;;;;;35.10;18.42;;;;;;;15.52;70.33;101432.22;4995354;28;20442;-44
2022/10/03 05:34:28;;;;;;;44.70;21.65;;;;;;;15.64;69.85;101441.25;4989747;28;20035;-45
2022/10/03 05:37:03;;;;;;;39.47;20.27;;;;;;;15.79;69.14;101441.72;4995077;28;20100;-43
2022/10/03 05:39:50;;;;;;;53.60;24.85;;;;;;;15.88;68.69;101447.66;4993187;28;20030;-43
2022/10/03 05:42:52;;;;;;;126.90;55.20;;;;;;;15.91;68.29;101447.16;5010741;28;20494;-43
2022/10/03 05:45:41;;;;;;;154.05;68.68;;;;;;;15.95;68.02;101450.25;5011438;28;20030;-43
2022/10/03 05:48:44;;;;;;;167.30;79.75;;;;;;;15.93;67.95;101449.63;5010770;28;20173;-45
2022/10/03 05:51:35;;;;;;;165.55;78.60;;;;;;;15.91;67.82;101451.75;4999917;28;20117;-46
2022/10/03 05:54:17;;;;;;;172.15;79.20;;;;;;;15.95;67.51;101442.97;5011204;28;20494;-46
2022/10/03 05:57:02;;;;;;;138.27;65.85;;;;;;;15.99;67.53;101449.59;5012472;28;20128;-49
2022/10/03 05:59:41;;;;;;;92.30;46.90;;;;;;;15.85;67.69;101448.09;5011446;28;20072;-48
2022/10/03 06:02:42;;;;;;;52.42;28.15;;;;;;;15.93;67.46;101452.34;5011964;28;20182;-45
2022/10/03 06:05:27;;;;;;;45.60;25.23;;;;;;;16.04;67.14;101451.56;5010756;28;20054;-46
2022/10/03 06:08:05;;;;;;;30.75;15.85;;;;;;;15.79;67.34;101459.78;5012183;28;20047;-45
2022/10/03 06:10:49;;;;;;;18.65;10.95;;;;;;;15.78;67.47;101456.25;5012061;28;20245;-45
2022/10/03 06:13:20;;;;;;;9.10;5.25;;;;;;;15.59;68.43;101457.25;5011326;28;20030;-45
2022/10/03 06:15:58;;;;;;;8.23;3.90;;;;;;;15.64;67.92;101456.63;4992020;28;20034;-43
2022/10/03 06:18:42;;;;;;;5.55;3.40;;;;;;;15.70;67.83;101453.03;4992938;28;20026;-47
2022/10/03 06:22:09;;;;;;;10.07;3.63;;;;;;;15.62;67.88;101445.22;5012168;28;20482;-43
2022/10/03 06:25:12;;;;;;;6.45;3.88;;;;;;;15.41;68.73;101451.84;5009653;28;20046;-45
2022/10/03 06:28:19;;;;;;;7.07;4.55;;;;;;;15.51;68.61;101453.00;5011202;28;20034;-45
2022/10/03 06:31:13;;;;;;;8.90;3.75;;;;;;;15.50;69.00;101456.75;5010925;28;20058;-44
2022/10/03 06:34:16;;;;;;;9.43;3.50;;;;;;;15.33;69.17;101452.97;5010900;28;20034;-43
2022/10/03 06:36:45;;;;;;;4.82;3.03;;;;;;;15.64;68.00;101459.31;5010573;28;20125;-44
2022/10/03 06:39:32;;;;;;;4.10;2.67;;;;;;;15.34;69.03;101451.09;5011713;28;20029;-43
2022/10/03 06:42:23;;;;;;;4.90;2.72;;;;;;;15.37;68.92;101462.25;5015107;28;20394;-43
2022/10/03 06:45:23;;;;;;;5.07;2.92;;;;;;;15.27;68.96;101461.97;5006839;28;20543;-43
2022/10/03 06:48:24;;;;;;;5.47;3.08;;;;;;;15.33;68.66;101463.78;5008481;28;20048;-43
2022/10/03 06:50:53;;;;;;;4.65;3.13;;;;;;;15.27;68.88;101461.97;5015328;28;20431;-46
2022/10/03 06:53:29;;;;;;;7.22;3.08;;;;;;;14.34;73.14;101475.25;5014862;28;20045;-47
2022/10/03 06:56:18;;;;;;;6.30;3.80;;;;;;;13.91;75.18;101473.97;5017961;28;20084;-43
2022/10/03 06:59:24;;;;;;;6.93;3.78;;;;;;;14.03;74.47;101466.06;5017121;28;20513;-47
2022/10/03 07:02:38;;;;;;;11.40;5.75;;;;;;;14.04;74.35;101472.28;5007551;28;20048;-46
2022/10/03 07:05:37;;;;;;;7.78;4.35;;;;;;;13.73;75.86;101469.28;5016760;28;20164;-47
2022/10/03 07:08:36;;;;;;;4.70;3.50;;;;;;;13.70;76.13;101464.31;5017071;28;20026;-46
2022/10/03 07:11:30;;;;;;;7.22;3.55;;;;;;;13.52;76.98;101468.72;5018368;28;20025;-43
2022/10/03 07:14:11;;;;;;;8.65;3.72;;;;;;;13.40;77.44;101463.97;5016680;28;20524;-43
2022/10/03 07:16:58;;;;;;;5.93;3.33;;;;;;;13.75;76.05;101455.63;5017060;28;20041;-43
2022/10/03 07:19:35;;;;;;;4.88;2.63;;;;;;;13.72;75.96;101459.56;5017608;28;20385;-43
2022/10/03 07:22:24;;;;;;;4.85;2.78;;;;;;;13.25;78.16;101460.69;5017195;28;20033;-46
2022/10/03 07:25:18;;;;;;;5.50;2.65;;;;;;;13.52;76.96;101460.66;5017623;28;20033;-44
2022/10/03 07:28:02;;;;;;;4.85;2.85;;;;;;;13.70;76.16;101458.09;5017300;28;20082;-42
2022/10/03 07:30:57;;;;;;;7.93;2.78;;;;;;;13.91;75.05;101468.59;5018039;28;20026;-43
2022/10/03 07:33:38;;;;;;;4.03;2.58;;;;;;;14.02;74.40;101467.09;5009295;28;20125;-43
2022/10/03 07:39:44;;;;;;;12.63;4.75;;;;;;;13.95;74.13;101467.13;4998242;28;20168;-43
2022/10/03 07:42:53;;;;;;;9.80;4.25;;;;;;;13.36;77.04;101465.44;5007476;28;20109;-42
2022/10/03 07:45:44;;;;;;;10.63;3.70;;;;;;;13.00;78.71;101459.66;5017476;28;20030;-42
2022/10/03 07:48:27;;;;;;;10.27;3.60;;;;;;;12.93;79.02;101460.44;5016904;28;20065;-46
2022/10/03 07:51:31;;;;;;;6.93;2.95;;;;;;;13.03;78.83;101457.34;5017810;28;20128;-43
2022/10/03 07:54:06;;;;;;;5.25;2.53;;;;;;;13.22;77.94;101460.28;5001200;28;20112;-45
2022/10/03 07:57:06;;;;;;;4.50;2.90;;;;;;;13.43;76.84;101466.22;5004042;28;20046;-43
2022/10/03 07:59:41;;;;;;;7.03;3.50;;;;;;;13.20;77.96;101463.13;5009701;28;20033;-45
2022/10/03 08:02:28;;;;;;;4.97;2.97;;;;;;;13.33;76.99;101463.16;5001919;28;20037;-43
2022/10/03 08:04:58;;;;;;;8.10;3.53;;;;;;;13.34;76.81;101456.75;5010974;28;20065;-42
2022/10/03 08:07:51;;;;;;;6.07;3.33;;;;;;;13.54;76.13;101461.25;5014413;28;20053;-42
2022/10/03 08:10:35;;;;;;;4.90;2.60;;;;;;;13.58;75.69;101466.00;5012142;28;20037;-44
2022/10/03 08:13:13;;;;;;;5.90;2.57;;;;;;;13.52;75.94;101468.72;5005810;28;20057;-44
2022/10/03 08:16:03;;;;;;;4.65;3.10;;;;;;;13.57;75.68;101461.66;5013940;28;20037;-43
2022/10/03 08:18:46;;;;;;;3.92;2.67;;;;;;;13.54;75.52;101455.88;5013000;28;20161;-43
2022/10/03 08:21:34;;;;;;;6.13;2.58;;;;;;;13.24;77.02;101460.91;5013066;28;20513;-45
2022/10/03 08:24:20;;;;;;;5.05;2.75;;;;;;;13.33;76.74;101460.47;5014057;28;20064;-47
2022/10/03 08:27:04;;;;;;;4.47;2.90;;;;;;;13.38;76.55;101458.00;5012576;28;20478;-43
2022/10/03 08:29:43;;;;;;;5.25;2.95;;;;;;;13.31;76.92;101467.91;5014136;28;20061;-43
2022/10/03 08:32:47;;;;;;;6.75;2.97;;;;;;;13.36;76.57;101456.53;5011952;28;20537;-43
2022/10/03 08:35:25;;;;;;;5.03;2.60;;;;;;;13.39;76.44;101465.03;5012531;28;20040;-43
2022/10/03 08:38:32;;;;;;;5.05;2.55;;;;;;;13.56;75.92;101464.56;5011935;28;20054;-43
2022/10/03 08:41:36;;;;;;;6.72;2.80;;;;;;;13.70;75.25;101464.31;5013131;28;20087;-44
2022/10/03 08:44:21;;;;;;;5.15;2.50;;;;;;;13.76;74.57;101470.72;5011799;28;20581;-44
2022/10/03 08:47:05;;;;;;;5.38;2.72;;;;;;;13.76;74.02;101465.34;5014050;28;20125;-45
2022/10/03 08:50:00;;;;;;;5.13;2.67;;;;;;;13.74;74.12;101470.09;5012903;28;20387;-43
2022/10/03 08:53:11;;;;;;;5.95;2.97;;;;;;;13.33;75.73;101471.25;5012805;28;20030;-47
2022/10/03 08:55:55;;;;;;;3.88;2.78;;;;;;;13.36;75.79;101473.50;5013147;28;20116;-46
2022/10/03 08:58:39;;;;;;;5.13;2.70;;;;;;;13.19;76.73;101466.84;5012781;28;20379;-46
2022/10/03 09:01:37;;;;;;;6.70;2.83;;;;;;;13.37;75.86;101463.56;5013040;28;20429;-45
2022/10/03 09:04:21;;;;;;;4.00;2.58;;;;;;;13.28;76.35;101468.34;5010988;28;20054;-45
2022/10/03 09:06:56;;;;;;;5.28;2.58;;;;;;;13.34;75.94;101470.19;5013250;28;20088;-46
2022/10/03 09:10:07;;;;;;;4.00;2.88;;;;;;;13.62;74.83;101472.63;5013230;28;20036;-44
2022/10/03 09:12:55;;;;;;;5.80;2.50;;;;;;;13.60;74.66;101465.78;5009478;28;20041;-44
2022/10/03 09:15:46;;;;;;;4.88;2.33;;;;;;;13.59;74.40;101472.22;4995408;28;20102;-45
2022/10/03 09:18:29;;;;;;;4.57;2.42;;;;;;;13.11;76.52;101470.59;5000912;28;20466;-43
2022/10/03 09:21:16;;;;;;;8.10;3.15;;;;;;;12.98;77.47;101472.44;5013218;28;20044;-46
2022/10/03 09:24:29;;;;;;;7.35;3.03;;;;;;;12.84;78.01;101467.06;5011767;28;20092;-43
2022/10/03 09:27:36;;;;;;;5.80;2.85;;;;;;;12.90;78.11;101470.78;4990998;28;20288;-45
2022/10/03 09:30:15;;;;;;;8.77;3.17;;;;;;;12.80;78.25;101465.81;4982409;28;20121;-43
2022/10/03 09:33:05;;;;;;;5.32;3.05;;;;;;;12.51;80.30;101476.94;4993508;28;20478;-45
2022/10/03 09:35:58;;;;;;;8.95;3.42;;;;;;;12.42;81.13;101479.78;4995314;28;20033;-47
2022/10/03 09:38:49;;;;;;;6.35;2.90;;;;;;;12.62;79.83;101473.66;5012729;28;20061;-43
2022/10/03 09:41:36;;;;;;;6.25;3.22;;;;;;;12.65;79.68;101483.97;5011126;28;20026;-46
2022/10/03 09:44:17;;;;;;;5.43;3.20;;;;;;;12.44;80.98;101476.94;5012207;28;20088;-47
2022/10/03 09:47:21;;;;;;;6.80;3.05;;;;;;;12.59;80.27;101479.41;5011833;28;20418;-46
2022/10/03 09:50:27;;;;;;;5.93;2.95;;;;;;;12.67;79.65;101479.25;5012745;28;20039;-46
2022/10/03 09:53:08;;;;;;;5.57;2.95;;;;;;;12.75;79.24;101481.72;5012020;28;20101;-46
2022/10/03 09:55:53;;;;;;;4.20;2.72;;;;;;;12.93;78.43;101476.56;5003334;28;20032;-43
2022/10/03 09:58:38;;;;;;;3.65;2.70;;;;;;;13.07;77.57;101476.59;4994423;28;20030;-46
2022/10/03 10:01:28;;;;;;;4.75;2.88;;;;;;;13.25;76.48;101476.00;4994523;28;20364;-47
2022/10/03 10:04:06;;;;;;;4.78;2.67;;;;;;;13.25;76.20;101478.69;4992201;28;20099;-44
2022/10/03 10:07:01;;;;;;;4.63;3.25;;;;;;;12.66;78.17;101472.22;5004590;28;20431;-44
2022/10/03 10:10:12;;;;;;;5.05;2.70;;;;;;;12.49;79.59;101471.75;5012239;28;20127;-46
2022/10/03 10:13:24;;;;;;;5.32;3.10;;;;;;;12.86;78.03;101478.44;4992042;28;20030;-44
2022/10/03 10:16:12;;;;;;;9.50;3.05;;;;;;;12.92;77.33;101480.28;5000026;28;20034;-44
2022/10/03 10:18:59;;;;;;;4.45;3.03;;;;;;;13.04;76.66;101480.50;5012002;28;20104;-45
2022/10/03 10:21:44;;;;;;;4.65;2.60;;;;;;;13.12;76.09;101479.47;5010963;28;20099;-44
2022/10/03 10:24:19;;;;;;;3.17;2.45;;;;;;;13.12;75.88;101479.47;5011769;28;20053;-45
2022/10/03 10:27:12;;;;;;;4.32;2.70;;;;;;;13.22;75.29;101477.25;5010859;28;20167;-42
2022/10/03 10:30:22;;;;;;;5.93;3.00;;;;;;;13.15;75.08;101479.06;5012189;28;20072;-43
2022/10/03 10:33:08;;;;;;;6.35;2.65;;;;;;;13.13;74.86;101473.06;4970365;28;20030;-43
2022/10/03 10:36:07;;;;;;;3.70;2.70;;;;;;;13.08;75.05;101478.25;4978777;28;20297;-43
2022/10/03 10:39:05;;;;;;;7.28;2.83;;;;;;;13.22;74.62;101481.78;4991646;28;20093;-44
2022/10/03 10:42:05;;;;;;;5.30;2.65;;;;;;;12.84;76.22;101477.81;4995976;28;20054;-43
2022/10/03 10:45:06;;;;;;;4.18;2.30;;;;;;;13.13;74.66;101486.50;4991268;28;20069;-43
2022/10/03 10:48:09;;;;;;;4.97;2.60;;;;;;;13.12;74.74;101480.31;4990654;28;20042;-43
2022/10/03 10:50:51;;;;;;;4.70;2.85;;;;;;;13.14;74.30;101493.53;4999968;28;20100;-43
2022/10/03 10:53:54;;;;;;;5.95;2.70;;;;;;;13.05;75.01;101484.03;5011675;28;20637;-43
2022/10/03 10:56:44;;;;;;;5.95;3.03;;;;;;;13.16;74.63;101491.47;5010496;28;20037;-46
2022/10/03 10:59:29;;;;;;;4.63;2.53;;;;;;;13.13;74.62;101489.19;5011712;28;20069;-47
2022/10/03 11:02:27;;;;;;;6.53;2.58;;;;;;;13.14;74.39;101488.16;5006946;28;20037;-42
2022/10/03 11:05:23;;;;;;;5.47;2.40;;;;;;;13.07;74.67;101487.34;5010151;28;20123;-43
2022/10/03 11:08:11;;;;;;;3.35;2.45;;;;;;;13.14;74.41;101488.16;5011912;28;20029;-43
2022/10/03 11:11:14;;;;;;;5.15;2.90;;;;;;;13.07;74.33;101495.41;5010284;28;20100;-43
2022/10/03 11:14:07;;;;;;;4.82;2.78;;;;;;;13.05;74.65;101487.56;5011740;28;20030;-43
2022/10/03 11:17:00;;;;;;;8.18;2.72;;;;;;;13.03;74.76;101494.16;5010524;28;20810;-44
2022/10/03 11:20:02;;;;;;;6.28;3.05;;;;;;;12.95;74.67;101496.00;5011484;28;20022;-43
2022/10/03 11:22:52;;;;;;;4.60;3.00;;;;;;;12.82;75.40;101497.84;4991777;28;20066;-43
2022/10/03 11:25:45;;;;;;;5.93;3.10;;;;;;;12.17;78.90;101508.22;4995701;28;20030;-43
2022/10/03 11:28:58;;;;;;;5.05;3.10;;;;;;;11.81;81.13;101503.03;5013010;28;20046;-45
2022/10/03 11:32:02;;;;;;;6.38;3.20;;;;;;;11.74;81.51;101503.00;5013339;28;20176;-46
2022/10/03 11:34:46;;;;;;;4.78;3.35;;;;;;;11.67;82.25;101502.16;4995089;28;20089;-47
2022/10/03 11:37:22;;;;;;;8.98;3.47;;;;;;;11.72;82.50;101507.75;5006780;28;20057;-47
2022/10/03 11:40:09;;;;;;;5.00;3.45;;;;;;;11.65;nan;101509.53;5014809;28;20089;-42
2022/10/03 11:43:36;;;;;;;5.78;3.17;;;;;;;11.61;82.64;101502.94;5014799;28;20581;-46
2022/10/03 11:46:05;;;;;;;8.77;3.33;;;;;;;11.68;82.59;101505.66;4966105;28;20121;-45
2022/10/03 11:48:45;;;;;;;7.55;3.55;;;;;;;11.62;82.90;101504.59;4988671;28;20116;-45
2022/10/03 11:51:36;;;;;;;7.95;3.28;;;;;;;11.69;83.21;101505.44;5004979;28;20185;-46
2022/10/03 11:54:27;;;;;;;7.03;3.80;;;;;;;11.86;82.39;101506.81;5014125;28;20022;-43
2022/10/03 11:57:07;;;;;;;6.25;3.38;;;;;;;11.93;81.92;101514.06;4995138;28;20030;-44
2022/10/03 11:59:59;;;;;;;6.13;3.63;;;;;;;11.95;81.12;101509.34;4995043;28;20153;-46
2022/10/03 12:02:54;;;;;;;4.72;3.40;;;;;;;12.04;80.78;101500.91;4994717;28;20100;-45
2022/10/03 12:05:39;;;;;;;7.72;3.40;;;;;;;11.86;81.23;101508.69;4994495;28;20061;-46
2022/10/03 12:08:55;;;;;;;6.55;3.40;;;;;;;11.83;81.33;101503.72;5011108;28;20053;-43
2022/10/03 12:11:24;;;;;;;6.70;3.30;;;;;;;11.87;81.36;101515.69;5013145;28;20041;-44
2022/10/03 12:14:17;;;;;;;6.13;3.50;;;;;;;11.63;82.49;101503.56;5014156;28;20030;-43
2022/10/03 12:16:59;;;;;;;5.43;3.30;;;;;;;11.74;82.41;101504.88;5011882;28;20121;-44
2022/10/03 12:19:46;;;;;;;6.88;3.30;;;;;;;11.81;81.85;101505.72;5013850;28;20057;-43
2022/10/03 12:22:25;;;;;;;7.47;3.67;;;;;;;11.60;82.64;101507.47;5014110;28;20038;-44
2022/10/03 12:24:57;;;;;;;7.35;3.35;;;;;;;11.75;82.67;101510.03;4994131;28;20036;-43
2022/10/03 12:27:35;;;;;;;5.68;3.53;;;;;;;11.68;82.74;101511.84;4994620;28;20018;-42
2022/10/03 12:30:11;;;;;;;7.32;3.40;;;;;;;11.83;82.32;101512.59;5013060;28;20044;-41
2022/10/03 12:32:48;;;;;;;7.95;3.33;;;;;;;11.88;81.57;101518.19;5014131;28;20426;-49
2022/10/03 12:35:39;;;;;;;7.30;3.35;;;;;;;12.03;80.85;101518.03;5013297;28;20025;-49
2022/10/03 12:38:17;;;;;;;4.35;2.90;;;;;;;12.06;80.42;101530.25;5013445;28;20057;-47
2022/10/03 12:40:54;;;;;;;7.25;3.55;;;;;;;12.13;79.87;101531.94;5013747;28;20107;-47
2022/10/03 12:43:56;;;;;;;4.80;3.33;;;;;;;12.25;79.49;101536.72;5013882;28;20091;-44
2022/10/03 12:46:28;;;;;;;7.22;3.58;;;;;;;12.25;79.29;101531.38;5011978;28;20085;-47
2022/10/03 12:48:59;;;;;;;6.40;3.22;;;;;;;11.98;79.70;101535.78;5013971;28;20109;-46
2022/10/03 12:51:53;;;;;;;7.55;3.30;;;;;;;11.77;80.97;101533.97;5013822;28;20425;-49
2022/10/03 12:54:43;;;;;;;9.20;3.63;;;;;;;11.91;80.40;101535.75;5013854;28;20029;-48
2022/10/03 12:57:33;;;;;;;4.25;2.90;;;;;;;11.89;80.51;101532.44;5014100;28;20095;-49
2022/10/03 13:00:28;;;;;;;6.32;3.35;;;;;;;11.74;80.83;101540.56;5013843;28;20472;-47
2022/10/03 13:03:08;;;;;;;6.85;3.40;;;;;;;11.74;81.47;101550.47;5013604;28;20064;-46
2022/10/03 13:05:55;;;;;;;7.47;3.50;;;;;;;11.56;82.26;101556.31;5013617;28;20549;-46
2022/10/03 13:08:45;;;;;;;4.72;3.00;;;;;;;11.71;81.76;101557.03;4994815;28;20475;-50
2022/10/03 13:11:31;;;;;;;7.75;3.25;;;;;;;11.69;81.43;101556.41;5009150;28;20095;-49